Accueil
METAR-TAF:

METAR-TAF

Aéroports :

Farnborough, Angleterre

latitude: 51-17N, longitude: 000-46W, altitude: 65 m

Observation

Le bulletin a été fait il y a 2 heures et 9 minutes, à 20:20 UTC
Vent 4 kt de ouest
Température 7°C
Humidité 93%
Pression 1017 hPa
Visibilité 10 km ou plus
Quelques nuages à une hauteur de 3200 ft

METAR: EGLF 272020Z 26004KT 9999 FEW032 07/06 Q1017

Heure: 23:29 (22:29 UTC)

Prévision

Le bulletin a été fait il y a 5 heures et 30 minutes, à 16:59 UTC
Prévision valable du 27 à 18 UTC au 27 à 21 UTC
Vent 8 kt de ouest
Visibilité 10 km ou plus
Nuages épars à une hauteur de 3000 ft
Probabilité 30% :
Temporairement
du 27 à 18 UTC au 27 à 20 UTC
Visibilité: 9000 m
faibles averses de pluie

TAF: EGLF 271659Z 2718/2721 27008KT 9999 SCT030 PROB30 TEMPO 2718/2720 9000 -SHRA

Observations et prévisions météorologiques de plus de 4000 aéroports (messages METAR et TAF).

Les stations disponibles sont représentées par des disques jaunes et rouges sur la carte.

Passer la souris dessus pour voir le nom de la station.

Cliquer dessus pour voir les observations et prévisions météorologiques.

Pour changer de carte: cliquez sur les boutons verts avec une croix noire pour zoomer, sur le bouton vert avec un tiret pour effectuer un zoom arrière, ou sur les flèches vertes pour les cartes adjacentes.


METAR-TAF: